• Join FlightAware (Why Join?)
  • Login
  • US Flag 
10:16PM EDT


 

Airport Tracker/Info


-or-


 

Live Flight TrackerFlight Track Log ✈ B-18725 ✈ 03-May-2013 ✈ KLAX - RJBB / KIX

Flight Track Log - Related Links

Times and Time Zones

All times are in EDT time to prevent confusion due to time zone crossing. See the B-18725 flight status page for this flight to view local times or setup timezone preferences in your user account.

Time Position Orientation Groundspeed Altitude Reporting Facility
EDT Latitude Longitude Course Direction KTS MPH feet Rate Location/Type
10:18AM 33.9080 -118.4880 231° Southwest 230 265 1,800  Level FlightAware
10:18AM 33.9010 -118.4980 230° Southwest 240 276 2,000 1,920 Climbing FlightAware
10:21AM 34.0363 -118.7881 285° West  Level FlightAware Approximate
10:22AM 34.0826 -118.9316 296° West  Level FlightAware Approximate
10:22AM 33.7850 -118.7950 296° West 327 376 8,700  Level FlightAware
10:22AM 33.7970 -118.8240 296° West 327 376 9,400 2,280 Climbing FlightAware
10:23AM 33.8310 -118.8690 312° West 336 387 10,600 1,440 Climbing FlightAware
10:23AM 33.8890 -118.9440 313° West 377 434 11,500 1,080 Climbing FlightAware
10:24AM 33.9250 -118.9910 313° West 400 460 12,100 1,800 Climbing FlightAware
10:25AM 33.9890 -119.0770 312° West 413 475 13,900 1,980 Climbing FlightAware
10:25AM 34.0470 -119.1530 313° West 423 487 15,300 1,920 Climbing FlightAware
10:26AM 34.1020 -119.2260 312° West 432 497 16,700 1,920 Climbing FlightAware
10:27AM 34.1640 -119.3080 312° West 441 507 18,100 1,860 Climbing FlightAware
10:28AM 34.2150 -119.3760 312° West 445 512 19,400 1,860 Climbing FlightAware
10:28AM 34.2700 -119.4490 312° West 449 517 20,600 1,620 Climbing FlightAware
10:29AM 34.3260 -119.5240 312° West 456 525 21,600 1,500 Climbing FlightAware
10:30AM 34.3940 -119.6160 312° West 465 535 22,800 1,020 Climbing FlightAware
10:31AM 34.4660 -119.7150 311° West 468 539 23,300 1,440 Climbing FlightAware
10:31AM 34.5310 -119.7990 313° West 478 550 25,100 1,920 Climbing FlightAware
10:32AM 34.6010 -119.8930 312° West 485 558 26,100 1,200 Climbing FlightAware
10:33AM 34.6580 -119.9700 312° West 490 564 26,800 1,080 Climbing FlightAware
10:33AM 34.7270 -120.0640 312° West 493 567 27,700 1,260 Climbing FlightAware
10:34AM 34.7890 -120.1480 312° West 494 568 28,600 1,260 Climbing FlightAware
10:35AM 34.8450 -120.2240 312° West 490 564 29,400 1,020 Climbing FlightAware
10:35AM 34.9120 -120.3160 312° West 490 564 30,000 420 Climbing FlightAware
10:36AM 34.9700 -120.3970 311° West 490 564 30,000  Level FlightAware
10:37AM 35.0210 -120.4680 311° West 490 564 30,000  Level FlightAware
10:38AM 35.1080 -120.5840 313° West 487 560 30,000  Level FlightAware
10:38AM 35.1760 -120.6730 313° West 487 560 30,000  Level FlightAware
10:39AM 35.2420 -120.7500 316° Northwest 488 562 30,000  Level FlightAware
10:40AM 35.2950 -120.8110 317° Northwest 488 562 30,000  Level FlightAware
10:40AM 35.3840 -120.9070 319° Northwest 487 560 30,000  Level FlightAware
10:41AM 35.4520 -120.9810 318° Northwest 485 558 30,000  Level FlightAware
10:42AM 35.5260 -121.0630 318° Northwest 485 558 30,000  Level FlightAware
10:42AM 35.5930 -121.1370 318° Northwest 484 557 30,000  Level FlightAware
10:43AM 35.6470 -121.1970 318° Northwest 485 558 30,000  Level FlightAware
10:44AM 35.7310 -121.2900 318° Northwest 484 557 30,000  Level FlightAware
10:44AM 35.7850 -121.3530 317° Northwest 485 558 30,000  Level FlightAware
10:45AM 35.8610 -121.4360 318° Northwest 485 558 30,000  Level FlightAware
10:46AM 35.9420 -121.5280 317° Northwest 485 558 30,000  Level FlightAware
10:47AM 36.0070 -121.6020 317° Northwest 484 557 30,000  Level FlightAware
10:47AM 36.0800 -121.6840 318° Northwest 486 559 30,000  Level FlightAware
10:48AM 36.1460 -121.7600 317° Northwest 486 559 30,000  Level FlightAware
10:49AM 36.2150 -121.8380 318° Northwest 486 559 30,000  Level FlightAware
10:49AM 36.2870 -121.9200 317° Northwest 486 559 30,000  Level FlightAware
10:50AM 36.3500 -121.9930 317° Northwest 486 559 30,000  Level FlightAware
10:51AM 36.4270 -122.0820 317° Northwest 485 558 30,000  Level FlightAware
10:51AM 36.4800 -122.1420 318° Northwest 483 556 30,000  Level FlightAware
10:52AM 36.5670 -122.2430 317° Northwest 485 558 30,000  Level FlightAware
10:53AM 36.6320 -122.3180 317° Northwest 485 558 30,000  Level FlightAware
10:54AM 36.7060 -122.4040 317° Northwest 484 557 30,000  Level FlightAware
10:54AM 36.7710 -122.4800 317° Northwest 483 556 30,000  Level FlightAware
10:55AM 36.8330 -122.5530 317° Northwest 485 558 30,000  Level FlightAware
10:56AM 36.8900 -122.6190 317° Northwest 484 557 30,000  Level FlightAware
10:56AM 36.9720 -122.7150 317° Northwest 484 557 30,000  Level FlightAware
10:57AM 37.0480 -122.8050 317° Northwest 485 558 30,000  Level FlightAware
10:58AM 37.1120 -122.8800 317° Northwest 486 559 30,000  Level FlightAware
10:59AM 37.1790 -122.9600 316° Northwest 486 559 30,000  Level FlightAware
10:59AM 37.2500 -123.0440 317° Northwest 485 558 30,000  Level FlightAware
11:00AM 37.3180 -123.1240 317° Northwest 485 558 30,000  Level FlightAware
11:01AM 37.3820 -123.2010 316° Northwest 485 558 30,000  Level FlightAware
11:01AM 37.4570 -123.2910 316° Northwest 482 555 30,000  Level FlightAware
11:02AM 37.5200 -123.3670 316° Northwest 481 554 30,000  Level FlightAware
11:03AM 37.5910 -123.4520 317° Northwest 481 554 30,000  Level FlightAware
11:03AM 37.6560 -123.5300 316° Northwest 481 554 30,000  Level FlightAware
11:04AM 37.7290 -123.6190 316° Northwest 482 555 30,000  Level FlightAware
11:05AM 37.7940 -123.6970 317° Northwest 482 555 30,000  Level FlightAware
11:06AM 37.8560 -123.7720 316° Northwest 482 555 30,000  Level FlightAware
11:06AM 37.9220 -123.8530 316° Northwest 482 555 30,000  Level FlightAware
11:07AM 37.9760 -123.9200 316° Northwest 482 555 30,000  Level FlightAware
11:08AM 38.0310 -123.9860 317° Northwest 482 555 30,000  Level FlightAware
11:08AM 38.0860 -124.0530 316° Northwest 482 555 30,000  Level FlightAware
11:09AM 38.1400 -124.1200 316° Northwest 482 555 30,000  Level FlightAware
11:10AM 38.2080 -124.2040 316° Northwest 482 555 30,000  Level FlightAware
11:10AM 38.2630 -124.2710 316° Northwest 482 555 30,000  Level FlightAware
11:11AM 38.3170 -124.3380 316° Northwest 482 555 30,000  Level FlightAware
11:12AM 38.3720 -124.4050 316° Northwest 482 555 30,000  Level FlightAware
11:12AM 38.4260 -124.4730 315° West 482 555 30,000  Level FlightAware
11:13AM 38.4950 -124.5570 316° Northwest 482 555 30,000  Level FlightAware
11:14AM 38.5490 -124.6240 316° Northwest 482 555 30,000  Level FlightAware
11:15AM 38.6040 -124.6910 316° Northwest 482 555 30,000  Level FlightAware
11:15AM 38.6580 -124.7590 315° West 482 555 30,000  Level FlightAware
11:16AM 38.8814 -125.0456 315° West 480 552 30,000 -60 Level Oakland Center
11:17AM 38.9950 -125.1883 316° Northwest 477 549 29,900 -60 Descending Oakland Center
11:18AM 39.0889 -125.3094 315° West 478 550 29,900  Level Oakland Center
11:20AM 39.1794 -125.4236 316° Northwest 476 548 29,900  Level Oakland Center
11:21AM 39.2725 -125.5456 315° West 478 550 29,900  Level Oakland Center
11:22AM 39.3656 -125.6656 315° West 475 547 30,000  Climbing Oakland Center
11:23AM 39.4633 -125.7908 315° West 474 545 30,000  Level Oakland Center
11:24AM 39.5553 -125.9117 315° West 472 543 30,000  Level Oakland Center
11:25AM 39.6478 -126.0317 315° West 471 542 30,000  Level Oakland Center
11:26AM 39.7394 -126.1525 315° West 470 541 30,000  Level Oakland Center
11:27AM 39.8328 -126.2736 315° West 471 542 30,000  Level Oakland Center
11:28AM 39.9236 -126.3950 314° West 471 542 30,000  Level Oakland Center
11:29AM 40.0331 -126.5447 314° West 473 544 30,000  Level Oakland Center
11:30AM 40.1128 -126.6794 308° West 472 543 30,000 -60 Level Oakland Center
11:31AM 40.1936 -126.8153 308° West 473 544 29,900  Descending Oakland Center
11:32AM 40.3000 -127.0000 308° West 471 542 30,000  Climbing Oakland Oceanic (ODAPS)
11:38AM 40.7118 -127.7002 307° West 471 542 30,000  Level FlightAware Transoceanic
11:39AM 40.7936 -127.8413 307° West 471 542 30,000  Level FlightAware Transoceanic
11:40AM 40.8753 -127.9828 307° West 471 542 30,000  Level FlightAware Transoceanic
11:41AM 40.9568 -128.1246 307° West 471 542 30,000  Level FlightAware Transoceanic
11:42AM 41.0381 -128.2667 307° West 471 542 30,000  Level FlightAware Transoceanic
11:43AM 41.1192 -128.4092 307° West 471 542 30,000  Level FlightAware Transoceanic
11:44AM 41.2002 -128.5520 307° West 471 542 30,000  Level FlightAware Transoceanic
11:45AM 41.2810 -128.6952 307° West 471 542 30,000  Level FlightAware Transoceanic
11:46AM 41.3616 -128.8387 307° West 471 542 30,000  Level FlightAware Transoceanic
11:47AM 41.4420 -128.9827 307° West 471 542 30,000  Level FlightAware Transoceanic
11:48AM 41.5223 -129.1269 307° West 471 542 30,000  Level FlightAware Transoceanic
11:49AM 41.6024 -129.2715 306° West 471 542 30,000  Level FlightAware Transoceanic
11:50AM 41.6823 -129.4165 306° West 471 542 30,000  Level FlightAware Transoceanic
11:51AM 41.7620 -129.5618 306° West 471 542 30,000  Level FlightAware Transoceanic
11:52AM 41.8415 -129.7075 306° West 471 542 30,000  Level FlightAware Transoceanic
11:53AM 41.9208 -129.8536 306° West 471 542 30,000  Level FlightAware Transoceanic
11:54AM 42.0000 -130.0000 296° West 471 542 30,000  Level FlightAware Transoceanic
11:55AM 42.0579 -130.1611 296° West 471 542 30,000 960 Level FlightAware Transoceanic
11:55AM 42.0000 -130.0000 296° West 474 545 31,000  Climbing Oakland Oceanic (ODAPS)
11:56AM 42.1155 -130.3225 296° West 471 542 30,000 -540 Descending FlightAware Transoceanic
11:57AM 42.1729 -130.4842 296° West 471 542 30,000 480 Level FlightAware Transoceanic
11:57AM 42.2000 -130.5667 295° West 474 545 31,000  Climbing Oakland Oceanic (ODAPS)
11:58AM 42.2301 -130.6462 295° West 471 542 30,000 -900 Descending FlightAware Transoceanic
11:59AM 42.2871 -130.8085 295° West 471 542 30,000  Level FlightAware Transoceanic
12:00PM 42.3438 -130.9710 295° West 471 542 30,000 480 Level FlightAware Transoceanic
12:01PM 42.3938 -131.1149 295° West 474 545 31,000 480 Climbing FlightAware Transoceanic
12:02PM 42.4491 -131.2753 295° West 474 545 31,000  Level FlightAware Transoceanic
12:03PM 42.5043 -131.4359 295° West 474 545 31,000  Level FlightAware Transoceanic
12:04PM 42.5362 -131.5349 295° West 474 545 31,000  Level FlightAware Transoceanic
12:05PM 42.5914 -131.6973 295° West 474 545 31,000  Level FlightAware Transoceanic
12:06PM 42.6464 -131.8599 295° West 474 545 31,000  Level FlightAware Transoceanic
12:07PM 42.7012 -132.0229 295° West 474 545 31,000  Level FlightAware Transoceanic
12:08PM 42.7558 -132.1861 294° West 474 545 31,000  Level FlightAware Transoceanic
12:09PM 42.8101 -132.3497 294° West 474 545 31,000  Level FlightAware Transoceanic
12:10PM 42.8642 -132.5135 294° West 474 545 31,000  Level FlightAware Transoceanic
12:11PM 42.9180 -132.6776 294° West 474 545 31,000  Level FlightAware Transoceanic
12:12PM 42.9716 -132.8420 294° West 474 545 31,000  Level FlightAware Transoceanic
12:13PM 43.0250 -133.0066 294° West 474 545 31,000  Level FlightAware Transoceanic
12:14PM 43.0781 -133.1716 294° West 474 545 31,000  Level FlightAware Transoceanic
12:15PM 43.1310 -133.3368 294° West 474 545 31,000  Level FlightAware Transoceanic
12:16PM 43.1837 -133.5024 294° West 474 545 31,000  Level FlightAware Transoceanic
12:17PM 43.2361 -133.6682 293° West 474 545 31,000  Level FlightAware Transoceanic
12:18PM 43.2883 -133.8343 293° West 474 545 31,000  Level FlightAware Transoceanic
12:19PM 43.3402 -134.0007 293° West 474 545 31,000  Level FlightAware Transoceanic
12:20PM 43.3919 -134.1673 293° West 474 545 31,000  Level FlightAware Transoceanic
12:21PM 43.4434 -134.3343 293° West 474 545 31,000  Level FlightAware Transoceanic
12:22PM 43.4946 -134.5015 293° West 474 545 31,000  Level FlightAware Transoceanic
12:23PM 43.5456 -134.6691 293° West 474 545 31,000  Level FlightAware Transoceanic
12:24PM 43.5963 -134.8369 293° West 474 545 31,000  Level FlightAware Transoceanic
12:24PM 43.6333 -134.9667 293° West 479 551 31,000  Level Oakland Oceanic (ODAPS)
12:25PM 43.6468 -135.0049 292° West 474 545 31,000  Level FlightAware Transoceanic
12:26PM 43.6970 -135.1733 292° West 474 545 31,000  Level FlightAware Transoceanic
12:27PM 43.7470 -135.3420 292° West 474 545 31,000  Level FlightAware Transoceanic
12:28PM 43.7967 -135.5109 292° West 474 545 31,000  Level FlightAware Transoceanic
12:29PM 43.8462 -135.6801 292° West 474 545 31,000  Level FlightAware Transoceanic
12:30PM 43.9341 -135.9887 292° West 479 551 31,000  Level FlightAware Transoceanic
12:31PM 43.9833 -136.1600 292° West 479 551 31,000  Level FlightAware Transoceanic
12:32PM 44.0323 -136.3316 292° West 479 551 31,000  Level FlightAware Transoceanic
12:33PM 44.0810 -136.5035 291° West 479 551 31,000  Level FlightAware Transoceanic
12:34PM 44.1295 -136.6757 291° West 479 551 31,000  Level FlightAware Transoceanic
12:35PM 44.1777 -136.8482 291° West 479 551 31,000  Level FlightAware Transoceanic
12:36PM 44.2256 -137.0209 291° West 479 551 31,000  Level FlightAware Transoceanic
12:37PM 44.2733 -137.1939 291° West 479 551 31,000  Level FlightAware Transoceanic
12:38PM 44.3207 -137.3672 291° West 479 551 31,000  Level FlightAware Transoceanic
12:39PM 44.3679 -137.5408 291° West 479 551 31,000  Level FlightAware Transoceanic
12:40PM 44.4147 -137.7147 291° West 479 551 31,000  Level FlightAware Transoceanic
12:41PM 44.4614 -137.8888 290° West 479 551 31,000  Level FlightAware Transoceanic
12:42PM 44.5077 -138.0633 290° West 479 551 31,000  Level FlightAware Transoceanic
12:43PM 44.5538 -138.2380 290° West 479 551 31,000  Level FlightAware Transoceanic
12:44PM 44.5997 -138.4129 290° West 479 551 31,000  Level FlightAware Transoceanic
12:45PM 44.6452 -138.5882 290° West 479 551 31,000  Level FlightAware Transoceanic
12:46PM 44.6905 -138.7637 290° West 479 551 31,000  Level FlightAware Transoceanic
12:47PM 44.7355 -138.9395 290° West 479 551 31,000  Level FlightAware Transoceanic
12:48PM 44.7803 -139.1156 290° West 479 551 31,000  Level FlightAware Transoceanic
12:49PM 44.8248 -139.2919 290° West 479 551 31,000  Level FlightAware Transoceanic
12:50PM 44.8690 -139.4685 289° West 479 551 31,000  Level FlightAware Transoceanic
12:51PM 44.9129 -139.6454 289° West 479 551 31,000 780 Level FlightAware Transoceanic
12:51PM 44.9167 -139.6333 288° West 485 558 32,000  Climbing Oakland Oceanic (ODAPS)
12:52PM 44.9566 -139.8226 289° West 479 551 31,000 -600 Descending FlightAware Transoceanic
12:53PM 45.0000 -140.0000 304° West 479 551 31,000 660 Level FlightAware Transoceanic
12:53PM 45.0000 -140.0000 304° West 487 560 32,000  Climbing Oakland Oceanic (ODAPS)
12:54PM 45.0760 -140.1599 304° West 479 551 31,000 -660 Descending FlightAware Transoceanic
12:55PM 45.1518 -140.3202 304° West 479 551 31,000  Level FlightAware Transoceanic
12:56PM 45.2273 -140.4809 304° West 479 551 31,000 480 Level FlightAware Transoceanic
12:57PM 45.3027 -140.6420 304° West 485 558 32,000 480 Climbing FlightAware Transoceanic
12:58PM 45.3778 -140.8036 303° West 485 558 32,000  Level FlightAware Transoceanic
12:59PM 45.4450 -140.9491 303° West 487 560 32,000  Level FlightAware Transoceanic
01:00PM 45.5184 -141.1088 303° West 487 560 32,000  Level FlightAware Transoceanic
01:01PM 45.5916 -141.2688 303° West 487 560 32,000  Level FlightAware Transoceanic
01:02PM 45.6646 -141.4293 303° West 487 560 32,000  Level FlightAware Transoceanic
01:03PM 45.7373 -141.5902 303° West 487 560 32,000  Level FlightAware Transoceanic
01:04PM 45.8098 -141.7515 303° West 487 560 32,000  Level FlightAware Transoceanic
01:05PM 45.8821 -141.9132 303° West 487 560 32,000  Level FlightAware Transoceanic
01:06PM 45.9541 -142.0754 303° West 487 560 32,000  Level FlightAware Transoceanic
01:07PM 46.0259 -142.2380 302° West 487 560 32,000  Level FlightAware Transoceanic
01:08PM 46.0975 -142.4010 302° West 487 560 32,000  Level FlightAware Transoceanic
01:09PM 46.1689 -142.5644 302° West 487 560 32,000  Level FlightAware Transoceanic
01:10PM 46.2400 -142.7282 302° West 487 560 32,000  Level FlightAware Transoceanic
01:11PM 46.3109 -142.8925 302° West 487 560 32,000  Level FlightAware Transoceanic
01:12PM 46.3815 -143.0572 302° West 487 560 32,000  Level FlightAware Transoceanic
01:13PM 46.4519 -143.2223 302° West 487 560 32,000  Level FlightAware Transoceanic
01:14PM 46.5221 -143.3878 302° West 487 560 32,000  Level FlightAware Transoceanic
01:15PM 46.5920 -143.5538 301° West 487 560 32,000  Level FlightAware Transoceanic
01:16PM 46.6617 -143.7202 301° West 487 560 32,000  Level FlightAware Transoceanic
01:17PM 46.7312 -143.8870 301° West 487 560 32,000  Level FlightAware Transoceanic
01:18PM 46.8004 -144.0543 301° West 487 560 32,000  Level FlightAware Transoceanic
01:18PM 46.7667 -143.9833 301° West 487 560 32,000  Level Oakland Oceanic (ODAPS)
01:19PM 46.8694 -144.2220 301° West 487 560 32,000  Level FlightAware Transoceanic
01:20PM 46.9381 -144.3901 301° West 487 560 32,000  Level FlightAware Transoceanic
01:21PM 47.0065 -144.5587 301° West 487 560 32,000  Level FlightAware Transoceanic
01:22PM 47.0748 -144.7276 301° West 487 560 32,000  Level FlightAware Transoceanic
01:23PM 47.1427 -144.8970 300° West 487 560 32,000  Level FlightAware Transoceanic
01:24PM 47.1832 -145.0075 300° West 487 560 32,000  Level FlightAware Transoceanic
01:25PM 47.2518 -145.1797 300° West 487 560 32,000  Level FlightAware Transoceanic
01:26PM 47.3200 -145.3524 300° West 487 560 32,000  Level FlightAware Transoceanic
01:27PM 47.3880 -145.5255 300° West 487 560 32,000  Level FlightAware Transoceanic
01:28PM 47.4558 -145.6991 300° West 487 560 32,000  Level FlightAware Transoceanic
01:29PM 47.5233 -145.8732 300° West 487 560 32,000  Level FlightAware Transoceanic
01:30PM 47.5905 -146.0476 300° West 487 560 32,000  Level FlightAware Transoceanic
01:31PM 47.6575 -146.2226 300° West 487 560 32,000  Level FlightAware Transoceanic
01:32PM 47.7242 -146.3979 299° West 487 560 32,000  Level FlightAware Transoceanic
01:33PM 47.7906 -146.5738 299° West 487 560 32,000  Level FlightAware Transoceanic
01:34PM 47.8567 -146.7500 299° West 487 560 32,000  Level FlightAware Transoceanic
01:35PM 47.9226 -146.9267 299° West 487 560 32,000  Level FlightAware Transoceanic
01:36PM 47.9882 -147.1039 299° West 487 560 32,000  Level FlightAware Transoceanic
01:37PM 48.0536 -147.2815 299° West 487 560 32,000  Level FlightAware Transoceanic
01:38PM 48.1186 -147.4596 299° West 487 560 32,000  Level FlightAware Transoceanic
01:39PM 48.1834 -147.6381 298° West 487 560 32,000  Level FlightAware Transoceanic
01:40PM 48.2479 -147.8171 298° West 487 560 32,000  Level FlightAware Transoceanic
01:41PM 48.3122 -147.9965 298° West 487 560 32,000  Level FlightAware Transoceanic
01:42PM 48.3761 -148.1764 298° West 487 560 32,000  Level FlightAware Transoceanic
01:43PM 48.4398 -148.3567 298° West 487 560 32,000  Level FlightAware Transoceanic
01:44PM 48.5032 -148.5375 298° West 487 560 32,000  Level FlightAware Transoceanic
01:44PM 48.5500 -148.6667 298° West 493 567 32,000  Level Oakland Oceanic (ODAPS)
01:45PM 48.5663 -148.7187 298° West 487 560 32,000  Level FlightAware Transoceanic
01:46PM 48.6291 -148.9004 298° West 487 560 32,000  Level FlightAware Transoceanic
01:47PM 48.6917 -149.0826 297° West 487 560 32,000  Level FlightAware Transoceanic
01:48PM 48.7539 -149.2651 297° West 487 560 32,000  Level FlightAware Transoceanic
01:49PM 48.8159 -149.4482 297° West 487 560 32,000  Level FlightAware Transoceanic
01:50PM 48.8890 -149.6644 297° West 493 567 32,000  Level FlightAware Transoceanic
01:51PM 48.9446 -149.8320 297° West 493 567 32,000  Level FlightAware Transoceanic
01:51PM 49.0000 -150.0000 306° West 493 567 32,000  Level Oakland Oceanic (ODAPS)
01:52PM 49.0000 -150.0000 306° West 493 567 32,000  Level FlightAware Transoceanic
01:53PM 49.0846 -150.1763 306° West 493 567 32,000  Level FlightAware Transoceanic
01:54PM 49.1689 -150.3532 306° West 493 567 32,000  Level FlightAware Transoceanic
01:55PM 49.2529 -150.5307 306° West 493 567 32,000  Level FlightAware Transoceanic
01:56PM 49.3367 -150.7088 306° West 493 567 32,000  Level FlightAware Transoceanic
01:57PM 49.4201 -150.8876 306° West 493 567 32,000  Level FlightAware Transoceanic
01:58PM 49.4849 -151.0270 305° West 493 567 32,000  Level FlightAware Transoceanic
01:59PM 49.5648 -151.2001 305° West 493 567 32,000  Level FlightAware Transoceanic
02:00PM 49.6444 -151.3738 305° West 493 567 32,000  Level FlightAware Transoceanic
02:01PM 49.7238 -151.5481 305° West 493 567 32,000  Level FlightAware Transoceanic
02:02PM 49.8030 -151.7229 305° West 493 567 32,000  Level FlightAware Transoceanic
02:03PM 49.8819 -151.8983 305° West 493 567 32,000  Level FlightAware Transoceanic
02:04PM 49.9605 -152.0743 305° West 493 567 32,000  Level FlightAware Transoceanic
02:05PM 50.0388 -152.2509 305° West 493 567 32,000  Level FlightAware Transoceanic
02:06PM 50.1169 -152.4280 304° West 493 567 32,000  Level FlightAware Transoceanic
02:07PM 50.1947 -152.6057 304° West 493 567 32,000  Level FlightAware Transoceanic
02:08PM 50.2722 -152.7840 304° West 493 567 32,000  Level FlightAware Transoceanic
02:09PM 50.3494 -152.9629 304° West 493 567 32,000  Level FlightAware Transoceanic
02:10PM 50.4264 -153.1423 304° West 493 567 32,000  Level FlightAware Transoceanic
02:11PM 50.5031 -153.3224 304° West 493 567 32,000  Level FlightAware Transoceanic
02:11PM 50.5500 -153.4333 304° West 496 571 32,000  Level Oakland Oceanic (ODAPS)
02:12PM 50.5796 -153.5030 304° West 493 567 32,000  Level FlightAware Transoceanic
02:13PM 50.6557 -153.6842 303° West 493 567 32,000  Level FlightAware Transoceanic
02:14PM 50.7316 -153.8660 303° West 493 567 32,000  Level FlightAware Transoceanic
02:15PM 50.8072 -154.0484 303° West 493 567 32,000  Level FlightAware Transoceanic
02:16PM 50.8824 -154.2314 303° West 493 567 32,000  Level FlightAware Transoceanic
02:17PM 50.9954 -154.5086 303° West 496 571 32,000  Level FlightAware Transoceanic
02:18PM 51.0687 -154.6898 303° West 496 571 32,000  Level FlightAware Transoceanic
02:19PM 51.1417 -154.8716 303° West 496 571 32,000  Level FlightAware Transoceanic
02:20PM 51.2144 -155.0540 302° West 496 571 32,000  Level FlightAware Transoceanic
02:21PM 51.2868 -155.2369 302° West 496 571 32,000  Level FlightAware Transoceanic
02:22PM 51.3589 -155.4205 302° West 496 571 32,000  Level FlightAware Transoceanic
02:23PM 51.4308 -155.6046 302° West 496 571 32,000  Level FlightAware Transoceanic
02:24PM 51.5023 -155.7892 302° West 496 571 32,000  Level FlightAware Transoceanic
02:25PM 51.5736 -155.9745 302° West 496 571 32,000  Level FlightAware Transoceanic
02:26PM 51.6446 -156.1603 302° West 496 571 32,000  Level FlightAware Transoceanic
02:27PM 51.7152 -156.3467 301° West 496 571 32,000  Level FlightAware Transoceanic
02:28PM 51.7856 -156.5337 301° West 496 571 32,000  Level FlightAware Transoceanic
02:29PM 51.8557 -156.7213 301° West 496 571 32,000  Level FlightAware Transoceanic
02:30PM 51.9255 -156.9095 301° West 496 571 32,000  Level FlightAware Transoceanic
02:31PM 51.9950 -157.0982 301° West 496 571 32,000  Level FlightAware Transoceanic
02:32PM 52.0642 -157.2875 301° West 496 571 32,000  Level FlightAware Transoceanic
02:33PM 52.1330 -157.4774 300° West 496 571 32,000  Level FlightAware Transoceanic
02:34PM 52.2016 -157.6680 300° West 496 571 32,000  Level FlightAware Transoceanic
02:35PM 52.2699 -157.8591 300° West 496 571 32,000  Level FlightAware Transoceanic
02:36PM 52.3378 -158.0507 300° West 496 571 32,000  Level FlightAware Transoceanic
02:37PM 52.4055 -158.2430 300° West 496 571 32,000 480 Level FlightAware Transoceanic
02:37PM 52.4833 -158.4833 300° West 506 582 33,000  Climbing Oakland Oceanic (ODAPS)
02:38PM 52.4728 -158.4359 300° West 496 571 32,000 -960 Descending FlightAware Transoceanic
02:39PM 52.5398 -158.6293 300° West 496 571 32,000  Level FlightAware Transoceanic
02:40PM 52.6065 -158.8233 299° West 496 571 32,000  Level FlightAware Transoceanic
02:41PM 52.6729 -159.0180 299° West 496 571 32,000  Level FlightAware Transoceanic
02:42PM 52.7390 -159.2132 299° West 496 571 32,000  Level FlightAware Transoceanic
02:43PM 52.8047 -159.4090 299° West 496 571 32,000 480 Level FlightAware Transoceanic
02:44PM 52.9274 -159.7811 299° West 506 582 33,000 480 Climbing FlightAware Transoceanic
02:45PM 53.0000 -160.0000 284° West 506 582 33,000  Level FlightAware Transoceanic
02:45PM 53.0000 -160.0000 284° West 477 549 33,000  Level Oakland Oceanic (ODAPS)
02:46PM 53.0298 -160.2073 283° West 506 582 33,000  Level FlightAware Transoceanic
02:47PM 53.0593 -160.4148 283° West 506 582 33,000  Level FlightAware Transoceanic
02:48PM 53.0885 -160.6227 283° West 506 582 33,000  Level FlightAware Transoceanic
02:48PM 53.0667 -160.5500 282° West 470 541 33,000  Level Anchorage Center
02:48PM 53.0833 -160.6833 282° West 480 552 33,000  Level Anchorage Center
02:49PM 53.1172 -160.8308 283° West 506 582 33,000  Level FlightAware Transoceanic
02:49PM 53.1167 -160.9000 284° West 480 552 33,000  Level Anchorage Center
02:50PM 53.1456 -161.0392 283° West 506 582 33,000  Level FlightAware Transoceanic
02:50PM 53.1500 -161.1167 284° West 460 529 33,000  Level Anchorage Center
02:51PM 53.1773 -161.2751 283° West 477 549 33,000  Level FlightAware Transoceanic
02:51PM 53.1833 -161.3333 284° West 470 541 33,000  Level Anchorage Center
02:52PM 53.2055 -161.4887 282° West 477 549 33,000  Level FlightAware Transoceanic
02:52PM 53.2000 -161.5500 277° West 470 541 33,000  Level Anchorage Center
02:53PM 53.2333 -161.7025 282° West 477 549 33,000 180 Level FlightAware Transoceanic
02:53PM 53.2333 -161.7667 284° West 480 552 33,200 360 Climbing Anchorage Center
02:54PM 53.2667 -161.9833 285° West 470 541 33,700 360 Climbing Anchorage Center
02:55PM 53.2833 -162.2000 277° West 480 552 34,000 120 Climbing Anchorage Center
02:56PM 53.3167 -162.4167 285° West 480 552 34,000  Level Anchorage Center
02:57PM 53.3500 -162.6333 285° West 480 552 34,000  Level Anchorage Center
02:58PM 53.3500 -162.7333 270° West 490 564 34,000  Level Anchorage Center
03:01PM 53.3961 -163.1166 282° West  Level FlightAware Approximate
03:04PM 53.5167 -164.2000 280° West 480 552 34,000  Level Anchorage Center
03:05PM 53.5500 -164.4167 285° West 470 541 34,000  Level Anchorage Center
03:06PM 53.5500 -164.5000 270° West 470 541 34,000  Level Anchorage Center
03:07PM 53.5667 -164.7167 277° West 470 541 34,000  Level Anchorage Center
03:08PM 53.5623 -164.6010 281° West  Level FlightAware Approximate
03:08PM 53.6000 -164.9500 284° West 470 541 34,000  Level Anchorage Center
03:09PM 53.5845 -164.8140 280° West  Level FlightAware Approximate
03:09PM 53.6167 -165.1667 277° West 470 541 34,000  Level Anchorage Center
03:10PM 53.6063 -165.0272 280° West  Level FlightAware Approximate
03:10PM 53.6500 -165.5167 279° West 480 552 34,000  Level Anchorage Center
03:11PM 53.6667 -165.6167 286° West 480 552 34,000  Level Anchorage Center
03:13PM 53.7000 -166.0667 277° West 480 552 34,000  Level Anchorage Center
03:14PM 53.7167 -166.2333 280° West 470 541 34,000  Level Anchorage Center
03:15PM 53.7333 -166.5000 276° West 460 529 34,000  Level Anchorage Center
03:16PM 53.7667 -166.7167 285° West 470 541 34,000  Level Anchorage Center
03:17PM 53.7833 -166.9333 278° West 470 541 34,000  Level Anchorage Center
03:18PM 53.8000 -167.1667 277° West 470 541 34,000  Level Anchorage Center
03:19PM 53.8167 -167.3833 278° West 470 541 34,000  Level Anchorage Center
03:20PM 53.8333 -167.6000 278° West 460 529 34,000  Level Anchorage Center
03:21PM 53.8500 -167.8167 278° West 460 529 34,000  Level Anchorage Center
03:22PM 53.8667 -168.0333 278° West 450 518 34,000  Level Anchorage Center
03:23PM 53.8833 -168.1833 281° West 450 518 34,000  Level Anchorage Center
03:24PM 53.9000 -168.4500 276° West 440 506 34,000  Level Anchorage Center
03:25PM 53.9167 -168.6667 278° West 460 529 34,000  Level Anchorage Center
03:26PM 53.9167 -168.8667 270° West 440 506 34,000  Level Anchorage Center
03:27PM 53.9333 -169.0833 278° West 440 506 34,000  Level Anchorage Center
03:28PM 53.9500 -169.3000 278° West 460 529 34,000  Level Anchorage Center
03:29PM 53.9667 -169.5167 278° West 450 518 34,000  Level Anchorage Center
03:30PM 53.9833 -169.7167 278° West 450 518 34,000  Level Anchorage Center
03:31PM 53.9833 -169.9333 270° West 450 518 34,000  Level Anchorage Center
03:32PM 54.0000 -170.1500 278° West 450 518 34,000  Level Anchorage Center
03:33PM 54.0000 -170.3667 270° West 450 518 34,000  Level Anchorage Center
03:34PM 54.0167 -170.5833 278° West 440 506 34,000  Level Anchorage Center
03:35PM 54.0167 -170.7333 270° West 420 483 34,000  Level Anchorage Center
03:36PM 54.0333 -170.9500 278° West 450 518 34,000  Level Anchorage Center
03:37PM 54.0333 -171.1500 270° West 440 506 34,000  Level Anchorage Center
03:38PM 54.0333 -171.3667 270° West 440 506 34,000  Level Anchorage Center
03:39PM 54.0500 -171.5833 278° West 430 495 34,000  Level Anchorage Center
03:40PM 54.0500 -171.7833 270° West 440 506 34,000  Level Anchorage Center
03:41PM 54.0667 -172.0000 278° West 450 518 34,000  Level Anchorage Center
03:42PM 54.0667 -172.2167 270° West 440 506 34,000  Level Anchorage Center
03:43PM 54.0667 -172.4167 270° West 440 506 34,000  Level Anchorage Center
03:44PM 54.0667 -172.6500 270° West 450 518 34,000  Level Anchorage Center
03:45PM 54.0833 -172.8500 278° West 440 506 34,000  Level Anchorage Center
03:46PM 54.0833 -173.0500 270° West 430 495 34,000  Level Anchorage Center
03:47PM 54.0833 -173.2667 270° West 440 506 34,000  Level Anchorage Center
03:48PM 54.0833 -173.4667 270° West 430 495 34,000  Level Anchorage Center
03:49PM 54.0833 -173.6833 270° West 440 506 34,000  Level Anchorage Center
03:50PM 54.0833 -173.8833 270° West 440 506 34,000  Level Anchorage Center
03:51PM 54.1000 -174.1000 278° West 430 495 34,000  Level Anchorage Center
03:52PM 54.1000 -174.3000 270° West 440 506 34,000  Level Anchorage Center
03:53PM 54.1000 -174.5167 270° West 430 495 34,000  Level Anchorage Center
03:56PM 54.1011 -174.9015 270° West  Level FlightAware Approximate
04:03PM 54.0934 -176.4264 270° West  Level FlightAware Approximate
04:04PM 54.0908 -176.6442 269° West  Level FlightAware Approximate
04:05PM 54.0877 -176.8619 269° West  Level FlightAware Approximate
04:06PM 54.0843 -177.0796 269° West  Level FlightAware Approximate
04:07PM 54.0804 -177.2972 268° West  Level FlightAware Approximate
04:08PM 54.0762 -177.5149 268° West  Level FlightAware Approximate
04:09PM 54.0716 -177.7324 268° West  Level FlightAware Approximate
04:10PM 54.0666 -177.9500 268° West  Level FlightAware Approximate
04:11PM 54.0612 -178.1674 268° West  Level FlightAware Approximate
04:12PM 54.0554 -178.3848 267° West  Level FlightAware Approximate
04:12PM 54.0500 -178.5000 267° West 434 499 34,000  Level Anchorage Center
04:13PM 54.0492 -178.6022 267° West  Level FlightAware Approximate
04:14PM 54.0426 -178.8195 267° West  Level FlightAware Approximate
04:15PM 54.0356 -179.0367 267° West  Level FlightAware Approximate
04:16PM 54.0283 -179.2538 267° West  Level FlightAware Approximate
04:17PM 54.0205 -179.4709 267° West  Level FlightAware Approximate
04:18PM 54.0124 -179.6879 266° West  Level FlightAware Approximate
04:19PM 54.0083 -179.7859 266° West 434 499 34,000  Level FlightAware Transoceanic
04:20PM 54.0000 -180.0000 284° West 434 499 34,000  Level FlightAware Transoceanic
04:20PM 54.0000 180.0000 284° West 443 510 34,000  Level Anchorage Center
04:21PM 54.0305 179.7886 284° West 434 499 34,000  Level FlightAware Transoceanic
04:21PM 54.0167 179.7500 283° West 430 495 34,000  Level Anchorage Center
04:22PM 54.0606 179.5768 284° West 434 499 34,000  Level FlightAware Transoceanic
04:22PM 54.0500 179.5667 287° West 450 518 34,000  Level Anchorage Center
04:23PM 54.0903 179.3647 283° West 434 499 34,000  Level FlightAware Transoceanic
04:23PM 54.0833 179.3500 285° West 440 506 34,000  Level Anchorage Center
04:24PM 54.1197 179.1524 283° West 434 499 34,000  Level FlightAware Transoceanic
04:24PM 54.1000 179.1667 279° West 440 506 34,000  Level Anchorage Center
04:25PM 54.1486 178.9397 283° West 434 499 34,000  Level FlightAware Transoceanic
04:25PM 54.1333 178.9500 285° West 440 506 34,000  Level Anchorage Center
04:26PM 54.1772 178.7268 283° West 443 510 34,000  Level FlightAware Transoceanic
04:26PM 54.1667 178.7333 285° West 440 506 34,000  Level Anchorage Center
04:27PM 54.1833 178.5500 279° West 440 506 34,000  Level Anchorage Center
04:28PM 54.2167 178.3167 284° West 450 518 34,000  Level Anchorage Center
04:29PM 54.2167 178.1333 270° West 450 518 34,000  Level Anchorage Center
04:30PM 54.2167 177.9000 270° West 450 518 34,000  Level Anchorage Center
04:31PM 54.2333 177.7167 279° West 440 506 34,000  Level Anchorage Center
04:32PM 54.2333 177.4833 270° West 450 518 34,000  Level Anchorage Center
04:33PM 54.2333 177.3167 270° West 440 506 34,000  Level Anchorage Center
04:34PM 54.2333 177.0667 270° West 450 518 34,000  Level Anchorage Center
04:35PM 54.2333 176.8333 270° West 450 518 34,000  Level Anchorage Center
04:36PM 54.2333 176.6500 270° West 450 518 34,000  Level Anchorage Center
04:37PM 54.2333 176.4167 270° West 450 518 34,000  Level Anchorage Center
04:38PM 54.2333 176.2333 270° West 460 529 34,000  Level Anchorage Center
04:39PM 54.2333 176.0000 270° West 450 518 34,000  Level Anchorage Center
04:40PM 54.2333 175.8000 270° West 450 518 34,000  Level Anchorage Center
04:41PM 54.2333 175.5667 270° West 450 518 34,000  Level Anchorage Center
04:42PM 54.2333 175.3333 270° West 460 529 34,000  Level Anchorage Center
04:43PM 54.2333 175.1500 270° West 460 529 34,000  Level Anchorage Center
04:44PM 54.2333 174.9000 270° West 470 541 34,000  Level Anchorage Center
04:45PM 54.2333 174.7167 270° West 450 518 34,000  Level Anchorage Center
04:46PM 54.2333 174.4833 270° West 460 529 34,000  Level Anchorage Center
04:47PM 54.2333 174.2833 270° West 460 529 34,000  Level Anchorage Center
04:48PM 54.2167 174.0500 263° West 460 529 34,000  Level Anchorage Center
04:49PM 54.2167 173.8500 270° West 470 541 34,000  Level Anchorage Center
04:50PM 54.2167 173.6167 270° West 460 529 34,000  Level Anchorage Center
04:51PM 54.2167 173.3667 270° West 470 541 34,000  Level Anchorage Center
04:52PM 54.2000 173.1667 262° West 480 552 34,000  Level Anchorage Center
04:53PM 54.2000 172.9333 270° West 470 541 34,000  Level Anchorage Center
04:54PM 54.2000 172.7333 270° West 480 552 34,000  Level Anchorage Center
04:55PM 54.1333 172.5167 242° Southwest 480 552 34,000  Level Anchorage Center
04:56PM 54.0667 172.3667 233° Southwest 470 541 34,000 180 Level Anchorage Center
04:57PM 53.9833 172.1500 237° Southwest 480 552 34,400 480 Climbing Anchorage Center
04:58PM 53.9000 171.9667 232° Southwest 470 541 35,000 240 Climbing Anchorage Center
04:59PM 53.8333 171.8000 236° Southwest 480 552 35,000  Level Anchorage Center
05:00PM 53.7500 171.6000 235° Southwest 470 541 35,000  Level Anchorage Center
05:01PM 53.6833 171.4333 236° Southwest 490 564 35,000  Level Anchorage Center
05:02PM 53.6000 171.2500 233° Southwest 480 552 35,000  Level Anchorage Center
05:03PM 53.5167 171.0833 230° Southwest 490 564 35,000  Level Anchorage Center
05:04PM 53.4333 170.8833 235° Southwest 480 552 35,000  Level Anchorage Center
05:05PM 53.3500 170.6833 235° Southwest 480 552 35,000  Level Anchorage Center
05:06PM 53.2833 170.5333 233° Southwest 490 564 35,000  Level Anchorage Center
05:07PM 53.2000 170.3500 233° Southwest 480 552 35,000  Level Anchorage Center
05:08PM 53.1333 170.1833 236° Southwest 480 552 35,000  Level Anchorage Center
05:09PM 53.0500 170.0000 233° Southwest 470 541 35,000  Level Anchorage Center
05:10PM 52.9833 169.8500 234° Southwest 480 552 35,000  Level Anchorage Center
05:11PM 52.9000 169.6333 238° Southwest 480 552 35,000  Level Anchorage Center
05:12PM 52.8500 169.4667 244° Southwest 470 541 35,000  Level Anchorage Center
05:13PM 52.7833 169.2667 241° Southwest 460 529 35,000  Level Anchorage Center
05:14PM 52.7167 169.0500 243° Southwest 480 552 35,000  Level Anchorage Center
05:15PM 52.6667 168.9000 241° Southwest 450 518 35,000  Level Anchorage Center
05:16PM 52.5833 168.6833 238° Southwest 490 564 35,000  Level Anchorage Center
05:17PM 52.5333 168.5167 244° Southwest 480 552 35,000  Level Anchorage Center
05:18PM 52.4500 168.3167 236° Southwest 480 552 35,000  Level Anchorage Center
05:19PM 52.3833 168.1667 234° Southwest 490 564 35,000  Level Anchorage Center
05:20PM 52.3167 167.9500 243° Southwest 460 529 35,000  Level Anchorage Center
05:21PM 52.2667 167.8000 241° Southwest 480 552 35,000  Level Anchorage Center
05:24PM 52.1626 167.5135 239° Southwest  Level FlightAware Approximate
05:31PM 51.6991 166.2759 239° Southwest  Level FlightAware Approximate
05:32PM 51.6319 166.1012 238° Southwest  Level FlightAware Approximate
05:32PM 51.4833 165.6833 239° Southwest 444 511 35,000  Level Anchorage Center
05:33PM 51.5644 165.9270 238° Southwest  Level FlightAware Approximate
05:33PM 51.4333 165.5500 238° Southwest 475 547 35,000  Level Anchorage Center
05:34PM 51.4966 165.7533 238° Southwest  Level FlightAware Approximate
05:35PM 51.4286 165.5802 238° Southwest  Level FlightAware Approximate
05:35PM 51.3333 165.3167 238° Southwest 471 542 35,000  Level Anchorage Center
05:36PM 51.3612 165.4065 238° Southwest  Level FlightAware Approximate
05:37PM 51.2938 165.2332 238° Southwest  Level FlightAware Approximate
05:38PM 51.2262 165.0604 238° Southwest  Level FlightAware Approximate
05:39PM 51.0721 164.6523 237° Southwest 444 511 35,000  Level FlightAware Transoceanic
05:40PM 50.9991 164.4744 237° Southwest 475 547 35,000  Level FlightAware Transoceanic
05:40PM 50.9500 164.3833 237° Southwest 474 545 35,000  Level Anchorage Center
05:41PM 50.9039 164.2580 237° Southwest 471 542 35,000  Level FlightAware Transoceanic
05:42PM 50.8313 164.0835 237° Southwest 471 542 35,000  Level FlightAware Transoceanic
05:43PM 50.7586 163.9095 236° Southwest 471 542 35,000  Level FlightAware Transoceanic
05:44PM 50.6856 163.7360 236° Southwest 471 542 35,000  Level FlightAware Transoceanic
05:45PM 50.6123 163.5631 236° Southwest 471 542 35,000  Level FlightAware Transoceanic
05:46PM 50.5202 163.3566 236° Southwest 474 545 35,000  Level FlightAware Transoceanic
05:47PM 50.4477 163.1873 236° Southwest 474 545 35,000  Level FlightAware Transoceanic
05:48PM 50.3749 163.0186 236° Southwest 474 545 35,000  Level FlightAware Transoceanic
05:49PM 50.3019 162.8503 236° Southwest 474 545 35,000  Level FlightAware Transoceanic
05:50PM 50.2287 162.6826 236° Southwest 474 545 35,000  Level FlightAware Transoceanic
05:51PM 50.1552 162.5154 235° Southwest 474 545 35,000  Level FlightAware Transoceanic
05:52PM 50.0815 162.3486 235° Southwest 474 545 35,000  Level FlightAware Transoceanic
05:53PM 50.0076 162.1824 235° Southwest 474 545 35,000  Level FlightAware Transoceanic
05:54PM 49.9334 162.0168 235° Southwest 474 545 35,000  Level FlightAware Transoceanic
05:55PM 49.8589 161.8516 235° Southwest 474 545 35,000  Level FlightAware Transoceanic
05:56PM 49.7843 161.6869 235° Southwest 474 545 35,000  Level FlightAware Transoceanic
05:57PM 49.7094 161.5228 235° Southwest 474 545 35,000  Level FlightAware Transoceanic
05:58PM 49.6343 161.3591 235° Southwest 474 545 35,000  Level FlightAware Transoceanic
05:59PM 49.5589 161.1960 234° Southwest 474 545 35,000  Level FlightAware Transoceanic
05:59PM 49.5333 161.1333 232° Southwest 491 565 35,000  Level Anchorage Center
06:00PM 49.4833 161.0333 234° Southwest 474 545 35,000  Level FlightAware Transoceanic
06:00PM 49.4833 161.0333 234° Southwest 470 541 35,000  Level Anchorage Center
06:01PM 49.4034 160.8625 234° Southwest 474 545 35,000  Level FlightAware Transoceanic
06:02PM 49.3232 160.6922 234° Southwest 474 545 35,000  Level FlightAware Transoceanic
06:03PM 49.2428 160.5225 234° Southwest 474 545 35,000  Level FlightAware Transoceanic
06:04PM 49.1621 160.3533 234° Southwest 474 545 35,000  Level FlightAware Transoceanic
06:05PM 49.0812 160.1847 234° Southwest 491 565 35,000  Level FlightAware Transoceanic
06:06PM 49.0000 160.0167 233° Southwest 470 541 35,000  Level FlightAware Transoceanic
06:07PM 48.9216 159.8568 233° Southwest 470 541 35,000  Level FlightAware Transoceanic
06:08PM 48.8430 159.6975 233° Southwest 470 541 35,000  Level FlightAware Transoceanic
06:09PM 48.7643 159.5387 233° Southwest 470 541 35,000  Level FlightAware Transoceanic
06:10PM 48.6852 159.3803 233° Southwest 470 541 35,000  Level FlightAware Transoceanic
06:11PM 48.6060 159.2225 233° Southwest 470 541 35,000  Level FlightAware Transoceanic
06:12PM 48.5265 159.0652 233° Southwest 470 541 35,000  Level FlightAware Transoceanic
06:13PM 48.4469 158.9083 232° Southwest 470 541 35,000  Level FlightAware Transoceanic
06:14PM 48.3670 158.7520 232° Southwest 470 541 35,000  Level FlightAware Transoceanic
06:15PM 48.2869 158.5961 232° Southwest 470 541 35,000  Level FlightAware Transoceanic
06:16PM 48.2066 158.4407 232° Southwest 470 541 35,000  Level FlightAware Transoceanic
06:17PM 48.1261 158.2858 232° Southwest 470 541 35,000  Level FlightAware Transoceanic
06:18PM 48.0454 158.1314 232° Southwest 470 541 35,000  Level FlightAware Transoceanic
06:19PM 47.9645 157.9775 232° Southwest 470 541 35,000  Level FlightAware Transoceanic
06:20PM 47.8833 157.8241 232° Southwest 470 541 35,000  Level FlightAware Transoceanic
06:21PM 47.8020 157.6711 232° Southwest 470 541 35,000  Level FlightAware Transoceanic
06:22PM 47.7205 157.5186 231° Southwest 470 541 35,000  Level FlightAware Transoceanic
06:23PM 47.6387 157.3667 231° Southwest 470 541 35,000  Level FlightAware Transoceanic
06:24PM 47.5568 157.2151 231° Southwest 470 541 35,000  Level FlightAware Transoceanic
06:25PM 47.4747 157.0641 231° Southwest 470 541 35,000  Level FlightAware Transoceanic
06:26PM 47.3923 156.9135 231° Southwest 470 541 35,000  Level FlightAware Transoceanic
06:27PM 47.3098 156.7634 231° Southwest 470 541 35,000  Level FlightAware Transoceanic
06:28PM 47.2271 156.6137 231° Southwest 470 541 35,000  Level FlightAware Transoceanic
06:29PM 47.1442 156.4646 231° Southwest 470 541 35,000  Level FlightAware Transoceanic
06:30PM 47.0611 156.3159 231° Southwest 470 541 35,000  Level FlightAware Transoceanic
06:31PM 46.9777 156.1676 230° Southwest 470 541 35,000  Level FlightAware Transoceanic
06:32PM 46.8942 156.0198 230° Southwest 470 541 35,000  Level FlightAware Transoceanic
06:33PM 46.8106 155.8725 230° Southwest 470 541 35,000  Level FlightAware Transoceanic
06:34PM 46.7267 155.7256 230° Southwest 470 541 35,000  Level FlightAware Transoceanic
06:35PM 46.6426 155.5792 230° Southwest 470 541 35,000  Level FlightAware Transoceanic
06:36PM 46.5584 155.4333 230° Southwest 470 541 35,000  Level FlightAware Transoceanic
06:37PM 46.4740 155.2878 230° Southwest 470 541 35,000  Level FlightAware Transoceanic
06:38PM 46.3894 155.1427 230° Southwest 470 541 35,000  Level FlightAware Transoceanic
06:39PM 46.3046 154.9981 230° Southwest 470 541 35,000  Level FlightAware Transoceanic
06:40PM 46.2196 154.8540 229° Southwest 470 541 35,000  Level FlightAware Transoceanic
06:41PM 46.1344 154.7103 229° Southwest 470 541 35,000  Level FlightAware Transoceanic
06:42PM 46.0491 154.5670 229° Southwest 470 541 35,000  Level FlightAware Transoceanic
06:43PM 45.9636 154.4242 229° Southwest 470 541 35,000  Level FlightAware Transoceanic
06:44PM 45.8779 154.2818 229° Southwest 470 541 35,000  Level FlightAware Transoceanic
06:45PM 45.7920 154.1399 229° Southwest 470 541 35,000  Level FlightAware Transoceanic
06:46PM 45.7060 153.9984 229° Southwest 470 541 35,000  Level FlightAware Transoceanic
06:47PM 45.6197 153.8573 229° Southwest 470 541 35,000  Level FlightAware Transoceanic
06:48PM 45.5277 153.7316 224° Southwest  Level FlightAware Approximate
06:49PM 45.4355 153.6064 224° Southwest  Level FlightAware Approximate
06:50PM 45.4444 153.6008 228° Southwest  Level FlightAware Approximate
06:51PM 45.3597 153.4655 228° Southwest  Level FlightAware Approximate
06:52PM 45.2747 153.3306 228° Southwest  Level FlightAware Approximate
06:53PM 45.1896 153.1962 228° Southwest  Level FlightAware Approximate
06:54PM 45.1044 153.0621 228° Southwest  Level FlightAware Approximate
06:55PM 45.0190 152.9284 228° Southwest  Level FlightAware Approximate
06:56PM 44.9334 152.7951 228° Southwest  Level FlightAware Approximate
06:57PM 44.8477 152.6622 228° Southwest  Level FlightAware Approximate
06:58PM 44.7618 152.5297 228° Southwest  Level FlightAware Approximate
06:59PM 44.6758 152.3976 228° Southwest  Level FlightAware Approximate
07:00PM 44.5897 152.2659 227° Southwest  Level FlightAware Approximate
07:01PM 44.5033 152.1345 227° Southwest  Level FlightAware Approximate
07:02PM 44.4169 152.0036 227° Southwest  Level FlightAware Approximate
07:03PM 44.3302 151.8730 227° Southwest  Level FlightAware Approximate
07:04PM 44.2435 151.7429 227° Southwest  Level FlightAware Approximate
07:05PM 44.1566 151.6131 227° Southwest  Level FlightAware Approximate
07:06PM 44.0695 151.4837 227° Southwest  Level FlightAware Approximate
07:07PM 43.9823 151.3547 227° Southwest  Level FlightAware Approximate
07:08PM 43.8949 151.2260 227° Southwest  Level FlightAware Approximate
07:09PM 43.8074 151.0978 227° Southwest  Level FlightAware Approximate
07:10PM 43.7198 150.9699 227° Southwest  Level FlightAware Approximate
07:11PM 43.6320 150.8424 226° Southwest  Level FlightAware Approximate
07:12PM 43.5441 150.7152 226° Southwest  Level FlightAware Approximate
07:13PM 43.4560 150.5885 226° Southwest  Level FlightAware Approximate
07:14PM 43.3678 150.4621 226° Southwest  Level FlightAware Approximate
07:15PM 43.2794 150.3360 226° Southwest  Level FlightAware Approximate
07:16PM 43.1910 150.2104 226° Southwest  Level FlightAware Approximate
07:17PM 43.1023 150.0851 226° Southwest  Level FlightAware Approximate
07:18PM 43.0136 149.9601 226° Southwest  Level FlightAware Approximate
07:19PM 42.9247 149.8356 226° Southwest  Level FlightAware Approximate
07:20PM 42.8357 149.7113 226° Southwest  Level FlightAware Approximate
07:21PM 42.7465 149.5875 226° Southwest  Level FlightAware Approximate
07:22PM 42.6572 149.4640 226° Southwest  Level FlightAware Approximate
07:23PM 42.5678 149.3408 225° Southwest  Level FlightAware Approximate
07:24PM 42.4782 149.2180 225° Southwest  Level FlightAware Approximate
07:25PM 42.3885 149.0956 225° Southwest  Level FlightAware Approximate
07:25PM 42.3290 149.0050 225° Southwest 445 512 36,000  Level FlightAware
07:26PM 42.2987 148.9735 225° Southwest  Level FlightAware Approximate
07:26PM 42.2690 148.9240 225° Southwest 444 511 36,000  Level FlightAware
07:27PM 42.2020 148.8340 225° Southwest 451 519 36,000  Level FlightAware
07:28PM 42.1300 148.7370 225° Southwest 451 519 36,000  Level FlightAware
07:28PM 42.0710 148.6580 225° Southwest 452 520 36,000  Level FlightAware
07:29PM 41.9990 148.5610 225° Southwest 452 520 36,000  Level FlightAware
07:30PM 41.9450 148.4900 224° Southwest 451 519 36,000  Level FlightAware
07:30PM 41.8790 148.4020 225° Southwest 449 517 36,000  Level FlightAware
07:31PM 41.8110 148.3120 225° Southwest 442 509 36,000  Level FlightAware
07:32PM 41.7520 148.2340 225° Southwest 447 514 36,000  Level FlightAware
07:33PM 41.6860 148.1470 225° Southwest 446 513 36,000  Level FlightAware
07:33PM 41.6340 148.0810 224° Southwest 445 512 36,000  Level FlightAware
07:34PM 41.5670 147.9950 224° Southwest 444 511 36,000  Level FlightAware
07:35PM 41.5060 147.9160 224° Southwest 444 511 36,000  Level FlightAware
07:35PM 41.4390 147.8310 224° Southwest 444 511 36,000  Level FlightAware
07:36PM 41.3910 147.7690 224° Southwest 442 509 36,000  Level FlightAware
07:39PM 41.1572 147.4733 224° Southwest  Level FlightAware Approximate
07:39PM 41.1270 147.4360 224° Southwest 441 507 36,000  Level FlightAware
07:40PM 41.0430 147.3300 224° Southwest 441 507 36,000  Level FlightAware
07:41PM 40.9670 147.2340 224° Southwest 440 506 36,000  Level FlightAware
07:42PM 40.8660 147.1090 223° Southwest 440 506 36,000  Level FlightAware
07:44PM 40.7150 146.9200 224° Southwest 438 504 36,000  Level FlightAware
07:45PM 40.6270 146.8110 223° Southwest 426 490 36,000  Level FlightAware
07:45PM 40.5800 146.7510 224° Southwest 425 489 36,000  Level FlightAware
07:46PM 40.5110 146.6690 222° Southwest 423 487 36,000  Level FlightAware
07:46PM 40.4690 146.6170 223° Southwest 423 487 36,000  Level FlightAware
07:47PM 40.4080 146.5430 223° Southwest 423 487 36,000  Level FlightAware
07:48PM 40.3110 146.4240 223° Southwest 423 487 36,000  Level FlightAware
07:49PM 40.2620 146.3650 223° Southwest 423 487 36,000  Level FlightAware
07:50PM 40.2010 146.2900 223° Southwest 423 487 36,000  Level FlightAware
07:50PM 40.1520 146.2310 223° Southwest 423 487 36,000  Level FlightAware
07:51PM 40.1040 146.1720 223° Southwest 423 487 36,000  Level FlightAware
07:52PM 40.0550 146.1120 223° Southwest 423 487 36,000  Level FlightAware
07:52PM 40.0060 146.0530 223° Southwest 423 487 36,000  Level FlightAware
07:53PM 39.9460 145.9790 223° Southwest 423 487 36,000  Level FlightAware
07:54PM 39.8970 145.9200 223° Southwest 423 487 36,000  Level FlightAware
07:55PM 39.8480 145.8610 223° Southwest 423 487 36,000  Level FlightAware
07:55PM 39.8000 145.8020 223° Southwest 423 487 36,000  Level FlightAware
07:56PM 39.7510 145.7430 223° Southwest 423 487 36,000  Level FlightAware
07:57PM 39.6900 145.6690 223° Southwest 423 487 36,000  Level FlightAware
07:57PM 39.6410 145.6100 223° Southwest 423 487 36,000  Level FlightAware
08:00PM 39.4398 145.3774 222° Southwest  Level FlightAware Approximate
08:01PM 39.3446 145.2680 222° Southwest  Level FlightAware Approximate
08:02PM 39.2493 145.1589 222° Southwest  Level FlightAware Approximate
08:03PM 39.1539 145.0501 222° Southwest  Level FlightAware Approximate
08:04PM 39.0584 144.9416 221° Southwest  Level FlightAware Approximate
08:05PM 38.9628 144.8334 221° Southwest  Level FlightAware Approximate
08:06PM 38.8671 144.7254 221° Southwest  Level FlightAware Approximate
08:07PM 38.7714 144.6175 222° Southwest  Level FlightAware Approximate
08:08PM 38.6761 144.5093 222° Southwest  Level FlightAware Approximate
08:09PM 38.5807 144.4014 221° Southwest  Level FlightAware Approximate
08:10PM 38.4851 144.2938 221° Southwest  Level FlightAware Approximate
08:11PM 38.3895 144.1865 221° Southwest  Level FlightAware Approximate
08:12PM 38.2938 144.0794 221° Southwest  Level FlightAware Approximate
08:13PM 38.1980 143.9727 221° Southwest  Level FlightAware Approximate
08:14PM 38.1021 143.8662 221° Southwest  Level FlightAware Approximate
08:15PM 38.0061 143.7600 221° Southwest  Level FlightAware Approximate
08:15PM 38.5390 143.2810 221° Southwest 412 474 36,000  Level FlightAware
08:15PM 38.5290 143.1970 261° West 413 475 36,000  Level FlightAware
08:16PM 38.5160 143.0910 261° West 414 476 36,000  Level FlightAware
08:17PM 38.5020 142.9800 261° West 414 476 36,000  Level FlightAware
08:18PM 38.4900 142.8760 262° West 415 478 36,000  Level FlightAware
08:18PM 38.4780 142.7830 261° West 414 476 36,000  Level FlightAware
08:19PM 38.4650 142.6790 261° West 412 474 36,000  Level FlightAware
08:20PM 38.4540 142.5880 261° West 412 474 36,000  Level FlightAware
08:20PM 38.4390 142.4770 260° West 411 473 36,000  Level FlightAware
08:21PM 38.4160 142.3850 252° West 411 473 36,000  Level FlightAware
08:22PM 38.3880 142.2820 251° West 409 471 36,000  Level FlightAware
08:23PM 38.3630 142.1900 251° West 409 471 36,000  Level FlightAware
08:23PM 38.3370 142.0900 252° West 409 471 36,000  Level FlightAware
08:24PM 38.3110 141.9950 251° West 409 471 36,000  Level FlightAware
08:25PM 38.2870 141.9050 251° West 409 471 36,000  Level FlightAware
08:25PM 38.2600 141.8030 251° West 410 472 36,000  Level FlightAware
08:26PM 38.2360 141.7120 251° West 416 479 36,000  Level FlightAware
08:27PM 38.2070 141.6050 251° West 421 484 36,000  Level FlightAware
08:27PM 38.1820 141.5150 251° West 422 486 36,000  Level FlightAware
08:28PM 38.1570 141.4200 252° West 420 483 36,000  Level FlightAware
08:29PM 38.1330 141.3280 252° West 419 482 36,000  Level FlightAware
08:30PM 38.1030 141.2240 250° West 417 480 36,000  Level FlightAware
08:30PM 38.0700 141.1230 247° West 416 479 36,000  Level FlightAware
08:31PM 38.0440 141.0410 248° West 412 474 36,000  Level FlightAware
08:32PM 38.0110 140.9420 247° West 409 471 36,000  Level FlightAware
08:32PM 37.9790 140.8430 248° West 410 472 36,000  Level FlightAware
08:33PM 37.9510 140.7570 248° West 415 478 36,000  Level FlightAware
08:34PM 37.9220 140.6710 247° West 412 474 36,000  Level FlightAware
08:34PM 37.8880 140.5680 247° West 410 472 36,000  Level FlightAware
08:35PM 37.8570 140.4770 247° West 408 470 36,000  Level FlightAware
08:36PM 37.8270 140.3870 247° West 407 468 36,000  Level FlightAware
08:37PM 37.7950 140.2930 247° West 408 470 36,000  Level FlightAware
08:37PM 37.7620 140.1940 247° West 407 468 36,000  Level FlightAware
08:38PM 37.7320 140.1050 247° West 410 472 36,000  Level FlightAware
08:39PM 37.7020 140.0180 246° West 412 474 36,000  Level FlightAware
08:39PM 37.6700 139.9220 247° West 414 476 36,000  Level FlightAware
08:40PM 37.6390 139.8330 246° West 412 474 36,000  Level FlightAware
08:41PM 37.6060 139.7360 247° West 412 474 36,000  Level FlightAware
08:41PM 37.5740 139.6430 247° West 414 476 36,000  Level FlightAware
08:42PM 37.5440 139.5560 247° West 414 476 36,000  Level FlightAware
08:43PM 37.5130 139.4660 247° West 414 476 36,000  Level FlightAware
08:44PM 37.4580 139.3070 246° West 415 478 36,000  Level FlightAware
08:45PM 37.4340 139.2380 246° West 414 476 36,000  Level FlightAware
08:45PM 37.3920 139.1190 246° West 414 476 36,000  Level FlightAware
08:46PM 37.3600 139.0290 246° West 415 478 36,000  Level FlightAware
08:47PM 37.3300 138.9420 247° West 414 476 36,000  Level FlightAware
08:48PM 37.2930 138.8390 246° West 414 476 36,000  Level FlightAware
08:48PM 37.2630 138.7530 246° West 414 476 36,000  Level FlightAware
08:49PM 37.2280 138.6550 246° West 414 476 36,000  Level FlightAware
08:50PM 37.1950 138.5610 246° West 414 476 36,000  Level FlightAware
08:50PM 37.1640 138.4750 246° West 415 478 36,000  Level FlightAware
08:51PM 37.1280 138.3750 246° West 417 480 36,000  Level FlightAware
08:52PM 37.0970 138.2880 246° West 416 479 36,000  Level FlightAware
08:52PM 37.0600 138.1850 246° West 415 478 36,000  Level FlightAware
08:53PM 37.0300 138.1000 246° West 416 479 36,000  Level FlightAware
08:54PM 36.9980 138.0110 246° West 416 479 36,000  Level FlightAware
08:55PM 36.9620 137.9110 246° West 420 483 36,000  Level FlightAware
08:55PM 36.9290 137.8200 246° West 420 483 36,000  Level FlightAware
08:56PM 36.8970 137.7320 246° West 421 484 36,000  Level FlightAware
08:57PM 36.8610 137.6310 246° West 427 491 36,000  Level FlightAware
08:57PM 36.8280 137.5420 245° Southwest 428 493 36,000  Level FlightAware
08:58PM 36.7900 137.4390 245° Southwest 428 493 36,000  Level FlightAware
08:59PM 36.7590 137.3540 246° West 426 490 36,000  Level FlightAware
09:00PM 36.7140 137.2300 246° West 424 488 36,000  Level FlightAware
09:00PM 36.6810 137.1410 245° Southwest 423 487 36,000  Level FlightAware
09:01PM 36.6440 137.0420 245° Southwest 423 487 36,000  Level FlightAware
09:02PM 36.6050 136.9370 245° Southwest 424 488 36,000  Level FlightAware
09:02PM 36.5810 136.8700 246° West 424 488 36,000  Level FlightAware
09:03PM 36.5370 136.7530 245° Southwest 423 487 36,000  Level FlightAware
09:04PM 36.5030 136.6640 245° Southwest 424 488 36,000  Level FlightAware
09:05PM 36.4700 136.5770 245° Southwest 422 486 36,000  Level FlightAware
09:05PM 36.4360 136.4850 245° Southwest 424 488 36,000  Level FlightAware
09:06PM 36.4000 136.3900 245° Southwest 425 489 36,000  Level FlightAware
09:07PM 36.3620 136.2900 245° Southwest 425 489 36,000  Level FlightAware
09:07PM 36.3310 136.2070 245° Southwest 424 488 36,000  Level FlightAware
09:08PM 36.2950 136.1140 244° Southwest 424 488 36,000  Level FlightAware
09:09PM 36.2580 136.0160 245° Southwest 423 487 36,000 -300 Level FlightAware
09:09PM 36.2250 135.9320 244° Southwest 427 491 35,600 -600 Descending FlightAware
09:10PM 36.1840 135.8300 244° Southwest 428 493 35,200 -540 Descending FlightAware
09:11PM 36.1370 135.7480 235° Southwest 434 499 34,900 -540 Descending FlightAware
09:12PM 36.0860 135.6740 230° Southwest 428 493 34,500 -540 Descending FlightAware
09:12PM 36.0270 135.5900 229° Southwest 426 490 34,200 -360 Descending FlightAware
09:13PM 35.9750 135.5150 229° Southwest 426 490 34,000 -180 Descending FlightAware
09:14PM 35.9170 135.4320 229° Southwest 421 484 34,000  Level FlightAware
09:14PM 35.8650 135.3580 229° Southwest 424 488 34,000  Level FlightAware
09:15PM 35.8080 135.2770 229° Southwest 424 488 34,000  Level FlightAware
09:16PM 35.7560 135.2030 229° Southwest 420 483 34,000  Level FlightAware
09:16PM 35.7070 135.1340 229° Southwest 421 484 34,000  Level FlightAware
09:17PM 35.6530 135.0580 229° Southwest 430 495 34,000  Level FlightAware
09:19PM 35.5340 134.8900 229° Southwest 436 502 34,000 -240 Level FlightAware
09:19PM 35.4820 134.8170 229° Southwest 424 488 33,600 -1,440 Descending FlightAware
09:20PM 35.4300 134.7450 228° Southwest 412 474 32,100 -2,400 Descending FlightAware
09:21PM 35.3440 134.6250 229° Southwest 394 453 29,200 -2,340 Descending FlightAware
09:22PM 35.3010 134.5650 229° Southwest 378 435 27,900 -2,040 Descending FlightAware
09:23PM 35.2220 134.4560 228° Southwest 365 420 25,500 -2,160 Descending FlightAware
09:24PM 35.1410 134.3430 229° Southwest 348 400 22,800 -2,220 Descending FlightAware
09:25PM 35.0620 134.2340 228° Southwest 346 398 20,000 -2,280 Descending FlightAware
09:27PM 34.9870 134.1310 228° Southwest 360 414 17,600 -1,800 Descending FlightAware
09:28PM 34.8950 134.0540 214° Southwest 360 414 16,000 -660 Descending FlightAware
09:29PM 34.7710 134.1000 163° South 385 443 16,000  Level FlightAware
09:30PM 34.6510 134.1900 148° Southeast 382 440 16,000 -720 Level FlightAware
09:31PM 34.5480 134.2690 148° Southeast 366 421 14,300 -1,680 Descending FlightAware
09:32PM 34.4890 134.3150 147° Southeast 367 422 13,000 -1,920 Descending FlightAware
09:33PM 34.4320 134.3580 148° Southeast 362 417 11,800 -1,320 Descending FlightAware
09:34PM 34.3690 134.4040 149° Southeast 332 382 11,200 -660 Descending FlightAware
09:34PM 34.3310 134.4560 131° Southeast 313 360 10,900 -900 Descending FlightAware
09:35PM 34.2900 134.5170 129° Southeast 302 348 10,000 -1,200 Descending FlightAware
09:35PM 34.2760 134.5370 130° Southeast 301 346 9,700 -1,320 Descending FlightAware
09:36PM 34.2410 134.5870 130° Southeast 297 342 8,800 -1,320 Descending FlightAware
09:36PM 34.2270 134.6070 130° Southeast 297 342 8,500 -1,380 Descending FlightAware
09:37PM 34.2070 134.6360 130° Southeast 296 341 7,900 -1,380 Descending FlightAware
09:37PM 34.1970 134.6630 114° Southeast 297 342 7,600 -1,200 Descending FlightAware
09:37PM 34.1940 134.6710 114° Southeast 295 339 7,500 -1,380 Descending FlightAware
09:38PM 34.1760 134.7270 111° Southeast 292 336 6,600 -1,080 Descending FlightAware
09:38PM 34.1600 134.7770 111° Southeast 281 323 6,200 -900 Descending FlightAware
09:38PM 34.1630 134.8100 84° East 272 313 5,800 -1,200 Descending FlightAware
09:39PM 34.1830 134.8420 53° Northeast 271 312 5,300 -1,140 Descending FlightAware
09:39PM 34.2080 134.8790 51° Northeast 267 307 4,800 -900 Descending FlightAware
09:40PM 34.2350 134.9180 50° Northeast 258 297 4,300 -720 Descending FlightAware
09:41PM 34.2590 134.9550 52° Northeast 236 272 4,000 -540 Descending FlightAware
09:41PM 34.2690 134.9690 49° Northeast 233 268 3,900 -180 Descending FlightAware
09:41PM 34.2830 134.9900 51° Northeast 233 268 3,900 -240 Level FlightAware
09:42PM 34.3070 135.0250 50° Northeast 212 244 3,700 -660 Descending FlightAware
09:42PM 34.3230 135.0500 52° Northeast 206 237 3,200 -1,080 Descending FlightAware
09:42PM 34.3330 135.0640 49° Northeast 194 223 2,900 -1,080 Descending FlightAware
09:43PM 34.3620 135.1070 51° Northeast 170 196 2,000 -720 Descending FlightAware
09:44PM 34.3740 135.1250 51° Northeast 170 196 2,000  Level FlightAware
09:46PM 34.4167 135.2333 54° Northeast  Level FlightAware Approximate
09:47PM 34.4273 135.2441 54° Northeast  Level Estimated
09:48PM 34.4273 135.2441 54° Northeast  Level Estimated
09:49PM 34.4273 135.2441 54° Northeast  Level Estimated
09:50PM 34.4273 135.2441 54° Northeast  Level Estimated
09:51PM 34.4273 135.2441 54° Northeast  Level Estimated
09:52PM 34.4273 135.2441 54° Northeast  Level Estimated
09:53PM 34.4273 135.2441 54° Northeast  Level Estimated
09:54PM 34.4273 135.2441 54° Northeast  Level Estimated
09:55PM 34.4273 135.2441 54° Northeast  Level Estimated
09:56PM 34.4273 135.2441 54° Northeast  Level Estimated
09:57PM 34.4273 135.2441 54° Northeast  Level Estimated
09:58PM 34.4273 135.2441 54° Northeast  Level Estimated
09:59PM 34.4273 135.2441 54° Northeast  Level Estimated
10:00PM 34.4273 135.2441 54° Northeast  Level Estimated
10:01PM 34.4273 135.2441 54° Northeast  Level Estimated
10:02PM 34.4273 135.2441 54° Northeast  Level Estimated
10:03PM 34.4273 135.2441 54° Northeast  Level Estimated
10:04PM 34.4273 135.2441 54° Northeast  Level Estimated